createdAt,value
2023-02-27T00:01:23.683Z,-2.98
2023-02-27T00:03:54.329Z,-3.00
2023-02-27T00:06:24.690Z,-3.05
2023-02-27T00:08:55.244Z,-3.01
2023-02-27T00:11:26.270Z,-3.01
2023-02-27T00:13:56.828Z,-3.01
2023-02-27T00:16:27.298Z,-3.05
2023-02-27T00:19:01.181Z,-3.04
2023-02-27T00:21:31.793Z,-3.06
2023-02-27T00:24:02.199Z,-3.05
2023-02-27T00:26:32.560Z,-3.06
2023-02-27T00:29:03.683Z,-3.08
2023-02-27T00:31:34.738Z,-3.07
2023-02-27T00:34:05.358Z,-3.04
2023-02-27T00:36:35.772Z,-3.03
2023-02-27T00:39:06.684Z,-3.04
2023-02-27T00:41:37.083Z,-3.06
2023-02-27T00:44:08.426Z,-3.07
2023-02-27T00:46:39.000Z,-3.08
2023-02-27T00:49:09.752Z,-3.08
2023-02-27T00:51:40.198Z,-3.09
2023-02-27T00:54:10.685Z,-3.11
2023-02-27T00:56:41.343Z,-3.07
2023-02-27T00:59:11.746Z,-3.06
2023-02-27T01:01:42.167Z,-3.02
2023-02-27T01:04:12.825Z,-2.98
2023-02-27T01:06:43.303Z,-3.00
2023-02-27T01:09:13.822Z,-2.93
2023-02-27T01:11:44.255Z,-2.91
2023-02-27T01:14:15.018Z,-2.91
2023-02-27T01:16:46.368Z,-2.93
2023-02-27T01:19:18.836Z,-2.97
2023-02-27T01:21:49.183Z,-3.03
2023-02-27T01:24:20.131Z,-3.08
2023-02-27T01:26:53.061Z,-3.11
2023-02-27T01:29:24.707Z,-3.12
2023-02-27T01:31:55.263Z,-3.12
2023-02-27T01:34:25.779Z,-3.11
2023-02-27T01:36:56.163Z,-3.11
2023-02-27T01:39:27.632Z,-3.14
2023-02-27T01:41:58.029Z,-3.14
2023-02-27T01:44:30.131Z,-3.12
2023-02-27T01:47:00.795Z,-3.08
2023-02-27T01:49:32.641Z,-3.04
2023-02-27T01:52:06.157Z,-3.01
2023-02-27T01:54:38.021Z,-3.04
2023-02-27T01:57:09.745Z,-3.05
2023-02-27T01:59:42.418Z,-3.09
2023-02-27T02:02:15.824Z,-3.12
2023-02-27T02:04:46.437Z,-3.14
2023-02-27T02:07:19.001Z,-3.18
2023-02-27T02:09:53.346Z,-3.22
2023-02-27T02:12:26.561Z,-3.25
2023-02-27T02:14:57.005Z,-3.29
2023-02-27T02:17:35.482Z,-3.35
2023-02-27T02:20:28.072Z,-3.35
2023-02-27T02:23:34.385Z,-3.37
2023-02-27T02:26:43.108Z,-3.41
2023-02-27T02:29:33.362Z,-3.47
2023-02-27T02:32:25.106Z,-3.50
2023-02-27T02:35:16.837Z,-3.49
2023-02-27T02:38:17.181Z,-3.47
2023-02-27T02:40:50.353Z,-3.42
2023-02-27T02:43:27.218Z,-3.42
2023-02-27T02:46:02.871Z,-3.44
2023-02-27T02:48:36.396Z,-3.42
2023-02-27T02:51:09.264Z,-3.42
2023-02-27T02:53:40.432Z,-3.43
2023-02-27T02:56:14.240Z,-3.44
2023-02-27T02:58:50.060Z,-3.43
2023-02-27T03:01:23.607Z,-3.43
2023-02-27T03:03:57.613Z,-3.44
2023-02-27T03:06:30.922Z,-3.42
2023-02-27T03:09:06.999Z,-3.40
2023-02-27T03:11:41.302Z,-3.43
2023-02-27T03:14:15.109Z,-3.47
2023-02-27T03:16:47.622Z,-3.49
2023-02-27T03:19:21.988Z,-3.50
2023-02-27T03:21:56.647Z,-3.53
2023-02-27T03:24:29.292Z,-3.55
2023-02-27T03:27:02.932Z,-3.58
2023-02-27T03:29:40.976Z,-3.57
2023-02-27T03:32:16.025Z,-3.57
2023-02-27T03:34:47.854Z,-3.57
2023-02-27T03:37:26.500Z,-3.57
2023-02-27T03:40:02.752Z,-3.60
2023-02-27T03:42:37.199Z,-3.58
2023-02-27T03:45:24.250Z,-3.57
2023-02-27T03:47:55.677Z,-3.60
2023-02-27T03:50:26.027Z,-3.64
2023-02-27T03:52:56.560Z,-3.67
2023-02-27T03:55:30.260Z,-3.68
2023-02-27T03:58:01.045Z,-3.70
2023-02-27T04:00:31.828Z,-3.71
2023-02-27T04:03:17.777Z,-3.68
2023-02-27T04:05:48.858Z,-3.66
2023-02-27T04:08:31.362Z,-3.63
2023-02-27T04:11:16.130Z,-3.61
2023-02-27T04:14:06.816Z,-3.62
2023-02-27T04:16:45.966Z,-3.64
2023-02-27T04:19:37.767Z,-3.66
2023-02-27T04:22:19.065Z,-3.74
2023-02-27T04:24:56.382Z,-3.73
2023-02-27T04:27:33.816Z,-3.76
2023-02-27T04:30:12.789Z,-3.75
2023-02-27T04:32:48.166Z,-3.75
2023-02-27T04:35:24.786Z,-3.76
2023-02-27T04:37:59.648Z,-3.77
2023-02-27T04:40:34.663Z,-3.76
2023-02-27T04:43:07.528Z,-3.77
2023-02-27T04:45:41.336Z,-3.80
2023-02-27T04:48:16.735Z,-3.77
2023-02-27T04:50:50.469Z,-3.77
2023-02-27T04:53:24.185Z,-3.76
2023-02-27T04:55:56.999Z,-3.75
2023-02-27T04:58:29.633Z,-3.76
2023-02-27T05:01:04.749Z,-3.76
2023-02-27T05:03:37.816Z,-3.76
2023-02-27T05:06:10.624Z,-3.82
2023-02-27T05:08:45.883Z,-3.78
2023-02-27T05:11:19.389Z,-3.79
2023-02-27T05:13:52.710Z,-3.82
2023-02-27T05:16:27.124Z,-3.84
2023-02-27T05:18:58.037Z,-3.82
2023-02-27T05:21:30.807Z,-3.84
2023-02-27T05:24:15.503Z,-3.86
2023-02-27T05:26:59.833Z,-3.88
2023-02-27T05:29:37.497Z,-3.83
2023-02-27T05:32:15.571Z,-3.84
2023-02-27T05:34:48.723Z,-3.84
2023-02-27T05:37:21.463Z,-3.85
2023-02-27T05:39:53.569Z,-3.83
2023-02-27T05:42:28.653Z,-3.78
2023-02-27T05:45:03.195Z,-3.73
2023-02-27T05:47:35.959Z,-3.69
2023-02-27T05:50:09.407Z,-3.66
2023-02-27T05:52:40.714Z,-3.65
2023-02-27T05:55:17.723Z,-3.65
2023-02-27T05:57:52.718Z,-3.65
2023-02-27T06:00:27.244Z,-3.66
2023-02-27T06:02:58.003Z,-3.67
2023-02-27T06:05:29.712Z,-3.69
2023-02-27T06:08:00.723Z,-3.75
2023-02-27T06:10:32.098Z,-3.74
2023-02-27T06:13:03.048Z,-3.77
2023-02-27T06:15:33.568Z,-3.78
2023-02-27T06:18:04.798Z,-3.77
2023-02-27T06:20:36.422Z,-3.74
2023-02-27T06:23:07.034Z,-3.71
2023-02-27T06:25:38.236Z,-3.68
2023-02-27T06:28:10.319Z,-3.66
2023-02-27T06:30:41.195Z,-3.64
2023-02-27T06:33:12.386Z,-3.62
2023-02-27T06:35:42.937Z,-3.64
2023-02-27T06:38:13.446Z,-3.58
2023-02-27T06:40:43.883Z,-3.56
2023-02-27T06:43:14.852Z,-3.53
2023-02-27T06:45:45.403Z,-3.47
2023-02-27T06:48:15.834Z,-3.41
2023-02-27T06:50:46.217Z,-3.35
2023-02-27T06:53:16.856Z,-3.30
2023-02-27T06:55:47.254Z,-3.25
2023-02-27T06:58:18.226Z,-3.21
2023-02-27T07:00:48.944Z,-3.17
2023-02-27T07:03:19.358Z,-3.14
2023-02-27T07:05:50.472Z,-3.08
2023-02-27T07:08:20.989Z,-2.82
2023-02-27T07:10:51.567Z,-2.18
2023-02-27T07:13:23.312Z,-1.53
2023-02-27T07:15:54.059Z,-0.93
2023-02-27T07:18:25.594Z,-0.48
2023-02-27T07:20:56.247Z,-0.11
2023-02-27T07:23:26.787Z,0.24
2023-02-27T07:25:57.406Z,0.40
2023-02-27T07:28:27.881Z,0.76
2023-02-27T07:31:12.272Z,1.07
2023-02-27T07:33:42.935Z,1.38
2023-02-27T07:36:13.476Z,1.63
2023-02-27T07:38:43.909Z,1.71
2023-02-27T07:41:29.549Z,1.83
2023-02-27T07:44:03.270Z,1.82
2023-02-27T07:46:33.900Z,1.81
2023-02-27T07:49:04.349Z,1.94
2023-02-27T07:51:35.051Z,2.12
2023-02-27T07:54:08.368Z,2.24
2023-02-27T07:56:39.404Z,2.39
2023-02-27T07:59:09.837Z,2.50
2023-02-27T08:01:40.337Z,2.49
2023-02-27T08:04:11.082Z,2.49
2023-02-27T08:06:41.752Z,2.55
2023-02-27T08:09:12.175Z,2.53
2023-02-27T08:11:42.555Z,2.53
2023-02-27T08:14:12.978Z,2.48
2023-02-27T08:16:43.493Z,2.47
2023-02-27T08:19:16.026Z,2.33
2023-02-27T08:21:46.391Z,2.34
2023-02-27T08:24:16.960Z,2.48
2023-02-27T08:26:47.525Z,2.52
2023-02-27T08:29:18.903Z,2.59
2023-02-27T08:31:50.404Z,2.67
2023-02-27T08:34:21.352Z,2.78
2023-02-27T08:36:51.899Z,2.73
2023-02-27T08:39:24.074Z,2.65
2023-02-27T08:41:55.098Z,2.61
2023-02-27T08:44:25.481Z,2.65
2023-02-27T08:46:56.211Z,2.71
2023-02-27T08:49:26.897Z,2.89
2023-02-27T08:51:57.452Z,3.06
2023-02-27T08:54:28.549Z,3.24
2023-02-27T08:56:59.243Z,3.36
2023-02-27T08:59:29.839Z,3.37
2023-02-27T09:02:00.768Z,3.54
2023-02-27T09:04:31.666Z,3.57
2023-02-27T09:07:02.342Z,3.48
2023-02-27T09:09:32.906Z,3.53
2023-02-27T09:12:03.525Z,3.45
2023-02-27T09:14:34.714Z,3.41
2023-02-27T09:17:05.198Z,3.36
2023-02-27T09:19:36.108Z,3.33
2023-02-27T09:22:06.958Z,3.39
2023-02-27T09:24:37.435Z,3.42
2023-02-27T09:27:08.011Z,3.11
2023-02-27T09:29:38.553Z,3.14
2023-02-27T09:32:09.605Z,3.30
2023-02-27T09:34:40.112Z,3.34
2023-02-27T09:37:10.558Z,3.27
2023-02-27T09:39:40.999Z,3.28
2023-02-27T09:42:17.329Z,3.57
2023-02-27T09:44:49.556Z,3.74
2023-02-27T09:47:24.846Z,3.96
2023-02-27T09:50:02.290Z,4.25
2023-02-27T09:52:36.295Z,4.58
2023-02-27T09:55:08.442Z,4.68
2023-02-27T09:57:44.998Z,4.57
2023-02-27T10:00:30.370Z,4.47
2023-02-27T10:03:08.207Z,4.03
2023-02-27T10:05:43.536Z,3.44
2023-02-27T10:08:18.208Z,3.12
2023-02-27T10:10:51.856Z,3.58
2023-02-27T10:13:34.966Z,4.14
2023-02-27T10:16:06.178Z,4.48
2023-02-27T10:18:41.367Z,4.24
2023-02-27T10:21:15.147Z,4.20
2023-02-27T10:23:47.465Z,4.26
2023-02-27T10:26:22.092Z,3.93
2023-02-27T10:28:52.545Z,3.64
2023-02-27T10:31:24.836Z,3.21
2023-02-27T10:33:55.414Z,2.86
2023-02-27T10:36:33.484Z,2.65
2023-02-27T10:39:08.029Z,2.41
2023-02-27T10:41:39.924Z,2.18
2023-02-27T10:44:10.867Z,2.09
2023-02-27T10:46:42.719Z,2.01
2023-02-27T10:49:19.225Z,2.13
2023-02-27T10:52:05.486Z,2.04
2023-02-27T10:54:37.105Z,1.72
2023-02-27T10:57:19.189Z,1.49
2023-02-27T10:59:55.868Z,1.53
2023-02-27T11:02:30.436Z,1.76
2023-02-27T11:05:01.865Z,2.50
2023-02-27T11:07:35.186Z,3.39
2023-02-27T11:10:16.885Z,4.07
2023-02-27T11:13:00.837Z,3.82
2023-02-27T11:15:32.932Z,3.48
2023-02-27T11:18:29.237Z,3.03
2023-02-27T11:21:16.836Z,2.75
2023-02-27T11:24:00.885Z,2.47
2023-02-27T11:26:34.292Z,2.71
2023-02-27T11:29:17.307Z,3.32
2023-02-27T11:31:51.338Z,4.05
2023-02-27T11:34:24.836Z,4.43
2023-02-27T11:36:57.401Z,4.50
2023-02-27T11:39:34.045Z,4.34
2023-02-27T11:42:15.047Z,3.96
2023-02-27T11:44:54.382Z,3.82
2023-02-27T11:47:29.649Z,4.15
2023-02-27T11:50:21.362Z,4.19
2023-02-27T11:52:54.371Z,3.76
2023-02-27T11:55:24.404Z,3.61
2023-02-27T11:57:59.507Z,3.24
2023-02-27T12:00:34.572Z,3.28
2023-02-27T12:03:07.979Z,4.00
2023-02-27T12:05:44.129Z,4.13
2023-02-27T12:08:19.384Z,4.48
2023-02-27T12:10:54.155Z,4.39
2023-02-27T12:13:29.094Z,5.16
2023-02-27T12:16:04.272Z,6.28
2023-02-27T12:18:39.618Z,7.19
2023-02-27T12:21:14.183Z,7.82
2023-02-27T12:23:47.335Z,8.46
2023-02-27T12:26:23.817Z,8.28
2023-02-27T12:28:58.204Z,8.42
2023-02-27T12:31:44.263Z,8.86
2023-02-27T12:34:30.193Z,9.30
2023-02-27T12:37:03.996Z,9.72
2023-02-27T12:39:36.206Z,9.70
2023-02-27T12:42:18.342Z,9.80
2023-02-27T12:44:59.708Z,10.12
2023-02-27T12:47:34.646Z,10.47
2023-02-27T12:50:10.696Z,10.71
2023-02-27T12:52:50.027Z,10.18
2023-02-27T12:55:24.269Z,9.17
2023-02-27T12:58:24.251Z,7.79
2023-02-27T13:00:59.773Z,6.79
2023-02-27T13:03:35.331Z,5.85
2023-02-27T13:06:10.928Z,6.05
2023-02-27T13:08:49.472Z,6.36
2023-02-27T13:11:28.061Z,5.91
2023-02-27T13:14:01.965Z,5.28
2023-02-27T13:16:36.637Z,4.76
2023-02-27T13:19:13.120Z,4.24
2023-02-27T13:21:49.483Z,3.98
2023-02-27T13:24:26.775Z,3.70
2023-02-27T13:27:00.973Z,3.38
2023-02-27T13:29:37.940Z,3.01
2023-02-27T13:32:17.008Z,2.72
2023-02-27T13:34:50.944Z,2.86
2023-02-27T13:37:21.382Z,4.49
2023-02-27T13:40:01.416Z,5.45
2023-02-27T13:42:58.404Z,5.46
2023-02-27T13:45:57.109Z,4.88
2023-02-27T13:48:45.811Z,4.36
2023-02-27T13:51:43.374Z,4.30
2023-02-27T13:54:22.278Z,5.01
2023-02-27T13:57:07.348Z,5.37
2023-02-27T13:59:39.570Z,5.35
2023-02-27T14:02:31.578Z,5.92
2023-02-27T14:05:04.940Z,5.61
2023-02-27T14:07:48.720Z,5.02
2023-02-27T14:10:24.285Z,4.31
2023-02-27T14:12:54.821Z,3.77
2023-02-27T14:15:56.907Z,3.41
2023-02-27T14:18:52.749Z,3.14
2023-02-27T14:21:57.274Z,3.01
2023-02-27T14:24:33.608Z,2.92
2023-02-27T14:27:05.157Z,2.83
2023-02-27T14:29:36.493Z,2.79
2023-02-27T14:32:08.691Z,2.69
2023-02-27T14:34:41.230Z,2.62
2023-02-27T14:37:17.191Z,2.62
2023-02-27T14:39:50.795Z,2.61
2023-02-27T14:42:45.012Z,2.66
2023-02-27T14:45:24.224Z,2.77
2023-02-27T14:47:55.203Z,2.87
2023-02-27T14:50:29.137Z,2.96
2023-02-27T14:52:59.514Z,3.00
2023-02-27T14:55:31.705Z,2.95
2023-02-27T14:58:09.876Z,2.87
2023-02-27T15:00:42.339Z,2.81
2023-02-27T15:03:20.436Z,2.73
2023-02-27T15:05:52.659Z,2.66
2023-02-27T15:08:25.400Z,2.57
2023-02-27T15:10:56.834Z,2.44
2023-02-27T15:13:30.398Z,2.35
2023-02-27T15:16:21.051Z,2.30
2023-02-27T15:18:52.522Z,2.25
2023-02-27T15:21:24.583Z,2.25
2023-02-27T15:23:59.428Z,2.18
2023-02-27T15:26:31.445Z,2.18
2023-02-27T15:29:02.891Z,2.14
2023-02-27T15:31:33.535Z,2.06
2023-02-27T15:34:04.834Z,2.04
2023-02-27T15:36:36.725Z,1.99
2023-02-27T15:39:17.861Z,1.94
2023-02-27T15:41:50.060Z,1.88
2023-02-27T15:44:24.885Z,1.85
2023-02-27T15:46:56.032Z,1.77
2023-02-27T15:49:27.833Z,1.75
2023-02-27T15:52:02.215Z,1.72
2023-02-27T15:54:37.417Z,1.67
2023-02-27T15:57:08.381Z,1.62
2023-02-27T15:59:42.006Z,1.58
2023-02-27T16:02:20.175Z,1.52
2023-02-27T16:04:51.062Z,1.45
2023-02-27T16:07:23.368Z,1.36
2023-02-27T16:09:56.795Z,1.30
2023-02-27T16:12:31.709Z,1.25
2023-02-27T16:15:30.248Z,1.21
2023-02-27T16:18:06.771Z,1.16
2023-02-27T16:20:44.579Z,1.13
2023-02-27T16:23:23.279Z,1.10
2023-02-27T16:26:05.308Z,1.07
2023-02-27T16:28:38.260Z,1.04
2023-02-27T16:31:07.251Z,1.00
2023-02-27T16:33:41.540Z,0.95
2023-02-27T16:36:20.416Z,0.91
2023-02-27T16:38:51.773Z,0.87
2023-02-27T16:41:24.287Z,0.84
2023-02-27T16:43:55.654Z,0.81
2023-02-27T16:46:26.281Z,0.78
2023-02-27T16:49:00.663Z,0.75
2023-02-27T16:51:37.089Z,0.72
2023-02-27T16:54:11.130Z,0.69
2023-02-27T16:56:42.249Z,0.65
2023-02-27T16:59:31.118Z,0.62
2023-02-27T17:02:03.777Z,0.58
2023-02-27T17:04:36.462Z,0.57
2023-02-27T17:07:07.454Z,0.55
2023-02-27T17:09:37.978Z,0.53
2023-02-27T17:12:08.891Z,0.50
2023-02-27T17:14:40.294Z,0.48
2023-02-27T17:17:11.550Z,0.46
2023-02-27T17:19:42.289Z,0.44
2023-02-27T17:22:12.844Z,0.41
2023-02-27T17:24:43.273Z,0.37
2023-02-27T17:27:13.678Z,0.34
2023-02-27T17:29:44.159Z,0.32
2023-02-27T17:32:15.030Z,0.29
2023-02-27T17:34:50.673Z,0.27
2023-02-27T17:37:24.755Z,0.24
2023-02-27T17:39:55.439Z,0.21
2023-02-27T17:42:26.514Z,0.18
2023-02-27T17:44:57.126Z,0.16
2023-02-27T17:47:28.031Z,0.14
2023-02-27T17:49:58.957Z,0.12
2023-02-27T17:52:29.859Z,0.10
2023-02-27T17:55:00.411Z,0.09
2023-02-27T17:57:31.004Z,0.06
2023-02-27T18:00:02.444Z,0.01
2023-02-27T18:02:36.014Z,0.03
2023-02-27T18:05:07.888Z,0.03
2023-02-27T18:07:38.548Z,0.02
2023-02-27T18:10:11.471Z,-0.01
2023-02-27T18:12:41.860Z,-0.04
2023-02-27T18:15:13.481Z,-0.09
2023-02-27T18:17:45.408Z,-0.13
2023-02-27T18:20:16.536Z,-0.21
2023-02-27T18:22:47.177Z,-0.22
2023-02-27T18:25:17.922Z,-0.27
2023-02-27T18:27:48.996Z,-0.32
2023-02-27T18:30:20.406Z,-0.36
2023-02-27T18:32:51.341Z,-0.40
2023-02-27T18:35:21.988Z,-0.44
2023-02-27T18:37:52.621Z,-0.51
2023-02-27T18:40:25.492Z,-0.48
2023-02-27T18:42:56.232Z,-0.54
2023-02-27T18:45:29.685Z,-0.50
2023-02-27T18:47:58.595Z,-0.51
2023-02-27T18:50:29.218Z,-0.52
2023-02-27T18:53:00.450Z,-0.55
2023-02-27T18:55:31.010Z,-0.59
2023-02-27T18:58:01.614Z,-0.64
2023-02-27T19:00:32.134Z,-0.67
2023-02-27T19:03:03.258Z,-0.69
2023-02-27T19:05:34.541Z,-0.72
2023-02-27T19:08:05.395Z,-0.75
2023-02-27T19:10:36.281Z,-0.80
2023-02-27T19:13:06.740Z,-0.84
2023-02-27T19:15:37.701Z,-0.88
2023-02-27T19:18:08.685Z,-0.89
2023-02-27T19:20:39.297Z,-0.91
2023-02-27T19:23:09.766Z,-0.92
2023-02-27T19:25:41.999Z,-0.94
2023-02-27T19:28:15.137Z,-0.98
2023-02-27T19:30:45.604Z,-1.05
2023-02-27T19:33:16.130Z,-1.11
2023-02-27T19:35:47.062Z,-1.18
2023-02-27T19:38:17.756Z,-1.23
2023-02-27T19:40:48.500Z,-1.26
2023-02-27T19:43:19.878Z,-1.27
2023-02-27T19:45:50.990Z,-1.31
2023-02-27T19:48:21.738Z,-1.26
2023-02-27T19:50:52.323Z,-1.25
2023-02-27T19:53:23.332Z,-1.23
2023-02-27T19:56:01.566Z,-1.19
2023-02-27T19:58:33.542Z,-1.16
2023-02-27T20:01:05.152Z,-1.16
2023-02-27T20:03:36.293Z,-1.10
2023-02-27T20:06:09.133Z,-1.07
2023-02-27T20:08:39.744Z,-1.04
2023-02-27T20:11:10.404Z,-1.03
2023-02-27T20:13:40.843Z,-1.00
2023-02-27T20:16:13.162Z,-0.98
2023-02-27T20:18:44.039Z,-0.96
2023-02-27T20:21:17.001Z,-0.95
2023-02-27T20:23:46.524Z,-0.93
2023-02-27T20:26:19.993Z,-0.93
2023-02-27T20:28:52.808Z,-0.93
2023-02-27T20:31:25.835Z,-0.94
2023-02-27T20:33:57.207Z,-0.93
2023-02-27T20:36:27.995Z,-0.93
2023-02-27T20:38:58.418Z,-0.94
2023-02-27T20:41:29.965Z,-0.94
2023-02-27T20:44:00.965Z,-0.95
2023-02-27T20:46:32.740Z,-0.96
2023-02-27T20:49:05.108Z,-0.96
2023-02-27T20:51:37.527Z,-0.96
2023-02-27T20:54:09.879Z,-0.95
2023-02-27T20:56:41.980Z,-0.95
2023-02-27T20:59:15.421Z,-0.93
2023-02-27T21:01:51.329Z,-0.93
2023-02-27T21:04:23.796Z,-0.93
2023-02-27T21:06:55.785Z,-0.92
2023-02-27T21:09:26.227Z,-0.92
2023-02-27T21:11:56.996Z,-0.92
2023-02-27T21:14:27.447Z,-0.92
2023-02-27T21:16:57.824Z,-0.93
2023-02-27T21:19:28.237Z,-0.94
2023-02-27T21:21:58.873Z,-0.95
2023-02-27T21:24:32.183Z,-0.97
2023-02-27T21:27:03.349Z,-0.99
2023-02-27T21:29:33.710Z,-1.05
2023-02-27T21:32:04.778Z,-1.04
2023-02-27T21:34:35.693Z,-1.07
2023-02-27T21:37:07.368Z,-1.10
2023-02-27T21:39:37.787Z,-1.12
2023-02-27T21:42:08.397Z,-1.14
2023-02-27T21:44:38.760Z,-1.16
2023-02-27T21:47:10.700Z,-1.19
2023-02-27T21:49:41.199Z,-1.21
2023-02-27T21:52:11.707Z,-1.20
2023-02-27T21:54:42.287Z,-1.19
2023-02-27T21:57:12.798Z,-1.22
2023-02-27T21:59:43.365Z,-1.20
2023-02-27T22:02:15.004Z,-1.21
2023-02-27T22:04:45.370Z,-1.24
2023-02-27T22:07:15.836Z,-1.25
2023-02-27T22:09:49.897Z,-1.28
2023-02-27T22:12:21.946Z,-1.31
2023-02-27T22:14:52.895Z,-1.35
2023-02-27T22:17:23.372Z,-1.41
2023-02-27T22:19:53.923Z,-1.46
2023-02-27T22:22:24.468Z,-1.53
2023-02-27T22:24:55.201Z,-1.59
2023-02-27T22:27:25.815Z,-1.64
2023-02-27T22:29:57.130Z,-1.71
2023-02-27T22:32:28.835Z,-1.75
2023-02-27T22:35:02.497Z,-1.81
2023-02-27T22:37:33.011Z,-1.86
2023-02-27T22:40:03.558Z,-1.87
2023-02-27T22:42:34.005Z,-1.85
2023-02-27T22:45:04.783Z,-1.83
2023-02-27T22:47:35.381Z,-1.81
2023-02-27T22:50:08.151Z,-1.82
2023-02-27T22:52:38.830Z,-1.85
2023-02-27T22:55:11.219Z,-1.87
2023-02-27T22:57:41.555Z,-1.87
2023-02-27T23:00:15.293Z,-1.89
2023-02-27T23:02:45.592Z,-1.90
2023-02-27T23:05:15.992Z,-1.93
2023-02-27T23:07:47.194Z,-1.89
2023-02-27T23:10:18.343Z,-1.87
2023-02-27T23:12:48.678Z,-1.85
2023-02-27T23:15:19.267Z,-1.83
2023-02-27T23:17:57.753Z,-1.81
2023-02-27T23:20:28.799Z,-1.81
2023-02-27T23:22:59.177Z,-1.80
2023-02-27T23:25:29.623Z,-1.81
2023-02-27T23:28:00.031Z,-1.83
2023-02-27T23:30:30.954Z,-1.85
2023-02-27T23:33:01.679Z,-1.86
2023-02-27T23:35:32.359Z,-1.86
2023-02-27T23:38:03.113Z,-1.84
2023-02-27T23:40:33.705Z,-1.80
2023-02-27T23:43:04.217Z,-1.78
2023-02-27T23:45:34.762Z,-1.78
2023-02-27T23:48:06.033Z,-1.78
2023-02-27T23:50:38.742Z,-1.86
2023-02-27T23:53:10.407Z,-1.84
2023-02-27T23:55:41.050Z,-1.89
2023-02-27T23:58:12.620Z,-1.93
